Time;durP1;ratioP1;P1;durP2;ratioP2;P2;SDS_P1;SDS_P2;PMS_P1;PMS_P2;Temp;Humidity;BMP_temperature;BMP_pressure;BME280_temperature;BME280_humidity;BME280_pressure;Samples;Min_cycle;Max_cycle;Signal;HPM_P1;HPM_P2
2020/12/18 00:01:44;;;;;;;;;;;9.20;99.90;;;;;;4998025;28;19926;-78
2020/12/18 00:04:11;;;;;;;;;;;9.20;99.90;;;;;;4997922;28;19926;-78
2020/12/18 00:06:37;;;;;;;;;;;9.20;99.90;;;;;;4997975;28;20235;-81
2020/12/18 00:09:04;;;;;;;;;;;9.20;99.90;;;;;;4998008;28;19961;-78
2020/12/18 00:11:30;;;;;;;;;;;9.20;99.90;;;;;;4997693;28;20032;-79
2020/12/18 00:13:56;;;;;;;;;;;9.20;99.90;;;;;;4997752;28;20243;-81
2020/12/18 00:16:23;;;;;;;;;;;9.20;99.90;;;;;;4998201;28;19980;-78
2020/12/18 00:18:50;;;;;;;;;;;9.20;99.90;;;;;;4997627;28;19926;-76
2020/12/18 00:21:17;;;;;;;;;;;9.20;99.90;;;;;;4997733;28;20370;-78
2020/12/18 00:23:43;;;;;;;;;;;9.20;99.90;;;;;;4997716;28;19973;-79
2020/12/18 00:26:09;;;;;;;;;;;9.30;99.90;;;;;;4997496;28;19926;-79
2020/12/18 00:28:36;;;;;;;;;;;9.30;99.90;;;;;;4997678;28;19926;-78
2020/12/18 00:31:02;;;;;;;;;;;9.30;99.90;;;;;;4997478;28;19964;-78
2020/12/18 00:33:28;;;;;;;;;;;9.30;99.90;;;;;;4997649;28;20021;-79
2020/12/18 00:35:55;;;;;;;;;;;9.30;99.90;;;;;;4997505;28;19933;-80
2020/12/18 00:38:22;;;;;;;;;;;9.30;99.90;;;;;;4997653;28;20274;-78
2020/12/18 00:40:48;;;;;;;;;;;9.40;99.90;;;;;;4997298;28;19937;-79
2020/12/18 00:43:14;;;;;;;;;;;9.40;99.90;;;;;;4996536;28;19978;-78
2020/12/18 00:45:42;;;;;;;;;;;9.40;99.90;;;;;;4997321;28;20302;-79
2020/12/18 00:48:08;;;;;;;;;;;9.40;99.90;;;;;;4997269;28;20321;-79
2020/12/18 00:50:34;;;;;;;;;;;9.40;99.90;;;;;;4997203;28;19926;-79
2020/12/18 00:53:01;;;;;;;;;;;9.40;99.90;;;;;;4996939;28;19936;-78
2020/12/18 00:55:28;;;;;;;;;;;9.40;99.90;;;;;;4997082;28;20339;-80
2020/12/18 00:57:54;;;;;;;;;;;9.40;99.90;;;;;;4997296;28;19937;-80
2020/12/18 01:00:20;;;;;;;;;;;9.40;99.90;;;;;;4996759;28;19992;-79
2020/12/18 01:02:46;;;;;;;;;;;9.40;99.90;;;;;;4996755;28;19925;-79
2020/12/18 01:05:13;;;;;;;;;;;9.40;99.90;;;;;;4996864;28;19933;-79
2020/12/18 01:07:39;;;;;;;;;;;9.40;99.90;;;;;;4996802;28;19926;-79
2020/12/18 01:10:07;;;;;;;;;;;9.40;99.90;;;;;;4996586;28;20367;-78
2020/12/18 01:12:33;;;;;;;;;;;9.40;99.90;;;;;;4996799;28;19930;-79
2020/12/18 01:14:59;;;;;;;;;;;9.40;99.90;;;;;;4996646;28;19936;-79
2020/12/18 01:17:26;;;;;;;;;;;9.40;99.90;;;;;;4996767;28;19929;-81
2020/12/18 01:19:52;;;;;;;;;;;9.40;99.90;;;;;;4996565;28;19977;-80
2020/12/18 01:22:18;;;;;;;;;;;9.40;99.90;;;;;;4996417;28;20338;-78
2020/12/18 01:24:44;;;;;;;;;;;9.50;99.90;;;;;;4996443;28;19993;-79
2020/12/18 01:27:12;;;;;;;;;;;9.50;99.90;;;;;;4996461;28;20025;-79
2020/12/18 01:29:38;;;;;;;;;;;9.50;99.90;;;;;;4996394;28;19937;-79
2020/12/18 01:32:05;;;;;;;;;;;9.50;99.90;;;;;;4996263;28;19934;-79
2020/12/18 01:34:31;;;;;;;;;;;9.50;99.90;;;;;;4996301;28;20012;-78
2020/12/18 01:36:57;;;;;;;;;;;9.50;99.90;;;;;;4996577;28;19926;-80
2020/12/18 01:39:23;;;;;;;;;;;9.50;99.90;;;;;;4996120;28;19926;-78
2020/12/18 01:41:50;;;;;;;;;;;9.60;99.90;;;;;;4996312;28;19926;-78
2020/12/18 01:44:17;;;;;;;;;;;9.60;99.90;;;;;;4995989;28;19938;-79
2020/12/18 01:46:43;;;;;;;;;;;9.60;99.90;;;;;;4996238;28;19925;-78
2020/12/18 01:49:09;;;;;;;;;;;9.60;99.90;;;;;;4996207;28;19926;-79
2020/12/18 01:51:36;;;;;;;;;;;9.60;99.90;;;;;;4996120;28;19930;-81
2020/12/18 01:54:02;;;;;;;;;;;9.60;99.90;;;;;;4995973;28;20275;-79
2020/12/18 01:56:28;;;;;;;;;;;9.60;99.90;;;;;;4995967;28;19953;-82
2020/12/18 01:58:54;;;;;;;;;;;9.60;99.90;;;;;;4995901;28;20266;-79
2020/12/18 02:01:22;;;;;;;;;;;9.60;99.90;;;;;;4995523;28;19925;-79
2020/12/18 02:03:48;;;;;;;;;;;9.60;99.90;;;;;;4995627;28;19926;-79
2020/12/18 02:06:15;;;;;;;;;;;9.60;99.90;;;;;;4995802;28;19925;-81
2020/12/18 02:08:41;;;;;;;;;;;9.60;99.90;;;;;;4995808;28;19926;-79
2020/12/18 02:11:08;;;;;;;;;;;9.60;99.90;;;;;;4995890;28;20016;-79
2020/12/18 02:13:34;;;;;;;;;;;9.60;99.90;;;;;;4995918;28;19925;-79
2020/12/18 02:16:00;;;;;;;;;;;9.60;99.90;;;;;;4995619;28;19926;-79
2020/12/18 02:18:27;;;;;;;;;;;9.60;99.90;;;;;;4995779;28;19929;-79
2020/12/18 02:20:54;;;;;;;;;;;9.50;99.90;;;;;;4996019;28;19926;-79
2020/12/18 02:23:20;;;;;;;;;;;9.60;99.90;;;;;;4995604;28;20273;-79
2020/12/18 02:25:52;;;;;;;;;;;9.60;99.90;;;;;;4995742;28;19933;-80
2020/12/18 02:28:18;;;;;;;;;;;9.50;99.90;;;;;;4995633;28;19925;-79
2020/12/18 02:30:44;;;;;;;;;;;9.50;99.90;;;;;;5007914;28;19934;-79
2020/12/18 02:33:11;;;;;;;;;;;9.50;99.90;;;;;;5015128;28;19925;-80
2020/12/18 02:35:37;;;;;;;;;;;9.50;99.90;;;;;;5015047;28;20377;-78
2020/12/18 02:38:03;;;;;;;;;;;9.50;99.90;;;;;;5015043;28;19936;-79
2020/12/18 02:40:29;;;;;;;;;;;9.60;99.90;;;;;;5014984;28;19925;-79
2020/12/18 02:42:57;;;;;;;;;;;9.60;99.90;;;;;;5015272;28;20288;-80
2020/12/18 02:45:23;;;;;;;;;;;9.60;99.90;;;;;;5015301;28;19926;-80
2020/12/18 02:47:49;;;;;;;;;;;9.60;99.90;;;;;;5015268;28;19925;-79
2020/12/18 02:50:15;;;;;;;;;;;9.60;99.90;;;;;;4997295;28;19964;-79
2020/12/18 02:52:42;;;;;;;;;;;9.60;99.90;;;;;;4995270;28;19925;-82
2020/12/18 02:55:08;;;;;;;;;;;9.60;99.90;;;;;;4995507;28;20278;-80
2020/12/18 02:57:34;;;;;;;;;;;9.70;99.90;;;;;;4995373;28;19926;-80
2020/12/18 03:00:01;;;;;;;;;;;9.60;99.90;;;;;;4995080;28;20343;-79
2020/12/18 03:02:28;;;;;;;;;;;9.70;99.90;;;;;;4995158;28;20351;-79
2020/12/18 03:04:54;;;;;;;;;;;9.70;99.90;;;;;;4995317;28;19925;-81
2020/12/18 03:07:20;;;;;;;;;;;9.70;99.90;;;;;;4996951;28;19926;-80
2020/12/18 03:09:47;;;;;;;;;;;9.70;99.90;;;;;;4999171;28;19930;-83
2020/12/18 03:12:13;;;;;;;;;;;9.70;99.90;;;;;;4999056;28;19937;-79
2020/12/18 03:14:39;;;;;;;;;;;9.70;99.90;;;;;;4998822;28;20240;-80
2020/12/18 03:17:06;;;;;;;;;;;9.70;99.90;;;;;;4998881;28;19926;-78
2020/12/18 03:19:33;;;;;;;;;;;9.70;99.90;;;;;;4999006;28;20024;-79
2020/12/18 03:21:59;;;;;;;;;;;9.70;99.90;;;;;;4998724;28;20406;-79
2020/12/18 03:24:25;;;;;;;;;;;9.70;99.90;;;;;;4998954;28;19937;-80
2020/12/18 03:26:51;;;;;;;;;;;9.70;99.90;;;;;;4998662;28;19926;-79
2020/12/18 03:29:18;;;;;;;;;;;9.70;99.90;;;;;;4998370;28;20251;-81
2020/12/18 03:31:44;;;;;;;;;;;9.70;99.90;;;;;;4998687;28;19926;-79
2020/12/18 03:34:11;;;;;;;;;;;9.70;99.90;;;;;;4998484;28;19934;-80
2020/12/18 03:36:37;;;;;;;;;;;9.70;99.90;;;;;;4998404;28;19927;-79
2020/12/18 03:39:04;;;;;;;;;;;9.70;99.90;;;;;;4998657;28;19925;-79
2020/12/18 03:41:31;;;;;;;;;;;9.70;99.90;;;;;;4998508;28;19926;-80
2020/12/18 03:43:57;;;;;;;;;;;9.70;99.90;;;;;;4998490;28;19926;-81
2020/12/18 03:46:23;;;;;;;;;;;9.80;99.90;;;;;;4998601;28;20359;-82
2020/12/18 03:48:50;;;;;;;;;;;9.80;99.90;;;;;;4998251;28;19926;-80
2020/12/18 03:51:17;;;;;;;;;;;9.80;99.90;;;;;;4998068;28;19930;-79
2020/12/18 03:53:43;;;;;;;;;;;9.80;99.90;;;;;;4998425;28;19926;-81
2020/12/18 03:56:09;;;;;;;;;;;9.80;99.90;;;;;;4998261;28;19926;-83
2020/12/18 03:58:36;;;;;;;;;;;9.80;99.90;;;;;;4997982;28;19926;-81
2020/12/18 04:01:02;;;;;;;;;;;9.80;99.90;;;;;;4997748;28;20271;-81
2020/12/18 04:03:28;;;;;;;;;;;9.80;99.90;;;;;;4998091;28;19937;-83
2020/12/18 04:05:55;;;;;;;;;;;9.80;99.90;;;;;;4997850;28;19958;-81
2020/12/18 04:08:22;;;;;;;;;;;9.80;99.90;;;;;;4998149;28;19936;-80
2020/12/18 04:10:48;;;;;;;;;;;9.80;99.90;;;;;;4998006;28;19925;-83
2020/12/18 04:13:14;;;;;;;;;;;9.80;99.90;;;;;;4997800;28;19926;-83
2020/12/18 04:15:41;;;;;;;;;;;9.80;99.90;;;;;;4998211;28;19925;-81
2020/12/18 04:18:08;;;;;;;;;;;9.80;99.90;;;;;;4996686;28;19926;-83
2020/12/18 04:20:34;;;;;;;;;;;9.80;99.90;;;;;;4997548;28;19934;-84
2020/12/18 04:23:00;;;;;;;;;;;9.80;99.90;;;;;;4997532;28;19932;-81
2020/12/18 04:25:27;;;;;;;;;;;9.80;99.90;;;;;;4997765;28;19940;-83
2020/12/18 04:27:54;;;;;;;;;;;9.80;99.90;;;;;;4997734;28;19960;-83
2020/12/18 04:30:20;;;;;;;;;;;9.80;99.90;;;;;;4997337;28;19929;-81
2020/12/18 04:32:46;;;;;;;;;;;9.70;99.90;;;;;;4997470;28;20008;-80
2020/12/18 04:35:12;;;;;;;;;;;9.70;99.90;;;;;;4997379;28;19941;-80
2020/12/18 04:37:39;;;;;;;;;;;9.70;99.90;;;;;;4989440;28;20355;-81
2020/12/18 04:40:05;;;;;;;;;;;9.70;99.90;;;;;;4997467;28;19937;-81
2020/12/18 04:42:33;;;;;;;;;;;9.70;99.90;;;;;;4997264;28;20417;-79
2020/12/18 04:44:59;;;;;;;;;;;9.70;99.90;;;;;;4997563;28;19937;-81
2020/12/18 04:47:25;;;;;;;;;;;9.70;99.90;;;;;;4997703;28;19925;-79
2020/12/18 04:49:52;;;;;;;;;;;9.70;99.90;;;;;;4997086;28;19925;-83
2020/12/18 04:52:18;;;;;;;;;;;9.70;99.90;;;;;;4996928;28;19926;-81
2020/12/18 04:54:44;;;;;;;;;;;9.70;99.90;;;;;;4997197;28;19925;-82
2020/12/18 04:57:10;;;;;;;;;;;9.70;99.90;;;;;;4996896;28;19926;-80
2020/12/18 04:59:38;;;;;;;;;;;9.70;99.90;;;;;;4996707;28;20375;-82
2020/12/18 05:02:04;;;;;;;;;;;9.70;99.90;;;;;;4996650;28;19925;-83
2020/12/18 05:04:30;;;;;;;;;;;9.70;99.90;;;;;;4996856;28;19926;-81
2020/12/18 05:06:56;;;;;;;;;;;9.80;99.90;;;;;;4996792;28;20358;-80
2020/12/18 05:09:23;;;;;;;;;;;9.80;99.90;;;;;;4996926;28;19933;-87
2020/12/18 05:11:50;;;;;;;;;;;9.80;99.90;;;;;;4996759;28;20381;-81
2020/12/18 05:14:17;;;;;;;;;;;9.80;99.90;;;;;;4996807;28;19937;-83
2020/12/18 05:16:46;;;;;;;;;;;9.80;99.90;;;;;;4996716;28;19926;-83
2020/12/18 05:19:15;;;;;;;;;;;9.80;99.90;;;;;;4996475;28;19992;-85
2020/12/18 05:21:42;;;;;;;;;;;9.70;99.90;;;;;;4996642;28;19988;-82
2020/12/18 05:24:10;;;;;;;;;;;9.80;99.90;;;;;;4996806;28;19977;-82
2020/12/18 05:26:38;;;;;;;;;;;9.70;99.90;;;;;;4996692;28;20327;-82
2020/12/18 05:29:06;;;;;;;;;;;9.80;99.90;;;;;;4996274;28;19925;-84
2020/12/18 05:31:34;;;;;;;;;;;9.80;99.90;;;;;;4988243;28;19963;-82
2020/12/18 05:34:01;;;;;;;;;;;9.80;99.90;;;;;;4996144;28;19936;-80
2020/12/18 05:36:27;;;;;;;;;;;9.80;99.90;;;;;;4995920;28;19926;-84
2020/12/18 05:38:54;;;;;;;;;;;9.80;99.90;;;;;;4996287;28;19925;-83
2020/12/18 05:41:21;;;;;;;;;;;9.90;99.90;;;;;;4996224;28;19926;-83
2020/12/18 05:43:47;;;;;;;;;;;9.90;99.90;;;;;;4995260;28;19976;-82
2020/12/18 05:46:18;;;;;;;;;;;9.90;99.90;;;;;;4996478;28;19925;-84
2020/12/18 05:48:44;;;;;;;;;;;9.90;99.90;;;;;;4996617;28;19925;-80
2020/12/18 05:51:11;;;;;;;;;;;9.90;99.90;;;;;;4996010;28;19926;-81
2020/12/18 05:53:38;;;;;;;;;;;9.90;99.90;;;;;;4996139;28;19926;-81
2020/12/18 05:56:04;;;;;;;;;;;10.00;99.90;;;;;;4995960;28;19926;-80
2020/12/18 05:58:30;;;;;;;;;;;10.00;99.90;;;;;;4996071;28;19937;-83
2020/12/18 06:00:57;;;;;;;;;;;10.10;99.90;;;;;;4995628;28;19929;-81
2020/12/18 06:03:23;;;;;;;;;;;10.10;99.90;;;;;;4995843;28;19937;-83
2020/12/18 06:05:49;;;;;;;;;;;10.00;99.90;;;;;;4996266;28;19945;-83
2020/12/18 06:08:17;;;;;;;;;;;10.10;99.90;;;;;;4996233;28;19925;-83
2020/12/18 06:10:43;;;;;;;;;;;10.10;99.90;;;;;;4995690;28;19940;-83
2020/12/18 06:13:09;;;;;;;;;;;10.10;99.90;;;;;;4995645;28;19925;-83
2020/12/18 06:15:36;;;;;;;;;;;10.10;99.90;;;;;;4995715;28;19934;-81
2020/12/18 06:18:02;;;;;;;;;;;10.10;99.90;;;;;;4995889;28;19925;-83
2020/12/18 06:20:28;;;;;;;;;;;10.10;99.90;;;;;;4995632;28;19926;-83
2020/12/18 06:22:56;;;;;;;;;;;10.10;99.90;;;;;;4995465;28;19925;-84
2020/12/18 06:25:23;;;;;;;;;;;10.10;99.90;;;;;;4995936;28;19937;-83
2020/12/18 06:27:53;;;;;;;;;;;10.20;99.90;;;;;;4995736;28;19925;-82
2020/12/18 06:30:19;;;;;;;;;;;10.20;99.90;;;;;;4995775;28;19930;-81
2020/12/18 06:32:46;;;;;;;;;;;10.20;99.90;;;;;;4995635;28;19930;-81
2020/12/18 06:35:31;;;;;;;;;;;10.20;99.90;;;;;;4995129;28;19926;-82
2020/12/18 06:37:59;;;;;;;;;;;10.20;99.90;;;;;;4987405;28;19937;-81
2020/12/18 06:40:30;;;;;;;;;;;10.20;99.90;;;;;;4986283;28;20265;-83
2020/12/18 06:42:58;;;;;;;;;;;10.20;99.90;;;;;;4998383;28;19988;-82
2020/12/18 06:45:26;;;;;;;;;;;10.20;99.90;;;;;;4999684;28;19937;-80
2020/12/18 06:47:53;;;;;;;;;;;10.20;99.90;;;;;;4997930;28;19926;-81
2020/12/18 06:50:20;;;;;;;;;;;10.20;99.90;;;;;;4999427;28;20377;-82
2020/12/18 06:52:49;;;;;;;;;;;10.20;99.90;;;;;;4999294;28;20054;-81
2020/12/18 06:55:17;;;;;;;;;;;10.20;99.90;;;;;;4999214;28;19930;-82
2020/12/18 06:57:45;;;;;;;;;;;10.20;99.90;;;;;;4999359;28;20271;-82
2020/12/18 07:00:28;;;;;;;;;;;10.20;99.90;;;;;;4990930;28;20248;-82
2020/12/18 07:02:56;;;;;;;;;;;10.20;99.90;;;;;;4993200;28;20354;-80
2020/12/18 07:05:30;;;;;;;;;;;10.20;99.90;;;;;;4999065;28;20373;-81
2020/12/18 07:08:00;;;;;;;;;;;10.20;99.90;;;;;;4998995;28;19926;-81
2020/12/18 07:10:27;;;;;;;;;;;10.20;99.90;;;;;;4999050;28;19984;-83
2020/12/18 07:12:58;;;;;;;;;;;10.20;99.90;;;;;;4999073;28;19961;-80
2020/12/18 07:15:29;;;;;;;;;;;10.30;99.90;;;;;;5006622;28;19925;-81
2020/12/18 07:17:56;;;;;;;;;;;10.20;99.90;;;;;;5018256;28;19925;-83
2020/12/18 07:20:27;;;;;;;;;;;10.20;99.90;;;;;;5038383;28;19951;-82
2020/12/18 07:22:55;;;;;;;;;;;10.20;99.90;;;;;;5038384;28;19926;-83
2020/12/18 07:25:22;;;;;;;;;;;10.20;99.90;;;;;;5038129;28;19987;-82
2020/12/18 07:27:50;;;;;;;;;;;10.30;99.90;;;;;;5038154;28;19925;-81
2020/12/18 07:30:20;;;;;;;;;;;10.30;99.90;;;;;;5038000;28;19929;-83
2020/12/18 07:32:49;;;;;;;;;;;10.30;99.90;;;;;;5020512;28;20301;-83
2020/12/18 07:35:16;;;;;;;;;;;10.30;99.90;;;;;;5037944;28;20231;-83
2020/12/18 07:37:43;;;;;;;;;;;10.30;99.90;;;;;;5038097;28;19925;-83
2020/12/18 07:40:11;;;;;;;;;;;10.40;99.90;;;;;;5037945;28;19934;-83
2020/12/18 07:42:39;;;;;;;;;;;10.40;99.90;;;;;;5037904;28;19925;-83
2020/12/18 07:45:07;;;;;;;;;;;10.40;99.90;;;;;;5037836;28;20365;-84
2020/12/18 07:47:36;;;;;;;;;;;10.40;99.90;;;;;;5037812;28;19999;-83
2020/12/18 07:50:04;;;;;;;;;;;10.30;99.90;;;;;;5037664;28;19936;-83
2020/12/18 07:52:31;;;;;;;;;;;10.40;99.90;;;;;;5037432;28;19991;-83
2020/12/18 07:54:59;;;;;;;;;;;10.40;99.90;;;;;;5037915;28;19952;-83
2020/12/18 07:57:29;;;;;;;;;;;10.40;99.90;;;;;;5037609;28;20364;-83
2020/12/18 08:00:09;;;;;;;;;;;10.40;99.90;;;;;;5037365;28;19990;-83
2020/12/18 08:02:38;;;;;;;;;;;10.40;99.90;;;;;;5037441;28;20261;-83
2020/12/18 08:05:06;;;;;;;;;;;10.40;99.90;;;;;;5037404;28;20387;-82
2020/12/18 08:07:35;;;;;;;;;;;10.40;99.90;;;;;;5037575;28;19936;-83
2020/12/18 08:10:03;;;;;;;;;;;10.40;99.90;;;;;;5037626;28;19931;-83
2020/12/18 08:12:31;;;;;;;;;;;10.40;99.90;;;;;;5037115;28;19926;-83
2020/12/18 08:15:08;;;;;;;;;;;10.40;99.90;;;;;;5037175;28;19929;-83
2020/12/18 08:17:35;;;;;;;;;;;10.40;99.90;;;;;;5037335;28;20350;-83
2020/12/18 08:20:05;;;;;;;;;;;10.40;99.90;;;;;;5037118;28;19926;-83
2020/12/18 08:22:33;;;;;;;;;;;10.40;99.90;;;;;;5037141;28;19936;-82
2020/12/18 08:25:00;;;;;;;;;;;10.40;99.90;;;;;;5037107;28;19975;-83
2020/12/18 08:27:27;;;;;;;;;;;10.40;99.90;;;;;;5037132;28;19932;-83
2020/12/18 08:29:54;;;;;;;;;;;10.40;99.90;;;;;;5036883;28;20427;-83
2020/12/18 08:32:23;;;;;;;;;;;10.40;99.90;;;;;;5037231;28;19955;-83
2020/12/18 08:34:50;;;;;;;;;;;10.40;99.90;;;;;;5036779;28;20377;-83
2020/12/18 08:37:21;;;;;;;;;;;10.50;99.90;;;;;;5036819;28;19957;-83
2020/12/18 08:39:48;;;;;;;;;;;10.50;99.90;;;;;;5036844;28;19979;-84
2020/12/18 08:42:15;;;;;;;;;;;10.50;99.90;;;;;;5036591;28;19968;-84
2020/12/18 08:44:42;;;;;;;;;;;10.50;99.90;;;;;;5036667;28;20354;-82
2020/12/18 08:47:21;;;;;;;;;;;10.50;99.90;;;;;;5036724;28;19935;-83
2020/12/18 08:49:48;;;;;;;;;;;10.50;99.90;;;;;;5036592;28;20381;-84
2020/12/18 08:52:21;;;;;;;;;;;10.50;99.90;;;;;;5036509;28;20825;-83
2020/12/18 08:54:52;;;;;;;;;;;10.50;99.90;;;;;;5036711;28;19925;-84
2020/12/18 08:57:23;;;;;;;;;;;10.50;99.90;;;;;;5036609;28;19987;-83
2020/12/18 09:00:02;;;;;;;;;;;10.50;99.90;;;;;;5036263;28;19975;-84
2020/12/18 09:02:30;;;;;;;;;;;10.50;99.90;;;;;;5036309;28;19925;-84
2020/12/18 09:05:18;;;;;;;;;;;10.60;99.90;;;;;;5036114;28;20091;-84
2020/12/18 09:07:51;;;;;;;;;;;10.50;99.90;;;;;;5036694;28;20520;-84
2020/12/18 09:10:31;;;;;;;;;;;10.60;99.90;;;;;;5036083;28;19929;-83
2020/12/18 09:13:07;;;;;;;;;;;10.60;99.90;;;;;;5036049;28;19952;-83
2020/12/18 09:15:35;;;;;;;;;;;10.60;99.90;;;;;;5035901;28;19929;-82
2020/12/18 09:18:03;;;;;;;;;;;10.60;99.90;;;;;;5036147;28;19925;-85
2020/12/18 09:20:30;;;;;;;;;;;10.60;99.90;;;;;;5035972;28;19991;-85
2020/12/18 09:23:00;;;;;;;;;;;10.60;99.90;;;;;;5035931;28;19983;-84
2020/12/18 09:25:29;;;;;;;;;;;10.60;99.90;;;;;;5035978;28;20269;-85
2020/12/18 09:27:57;;;;;;;;;;;10.60;99.90;;;;;;5035707;28;19925;-85
2020/12/18 09:30:25;;;;;;;;;;;10.60;99.90;;;;;;5035544;28;20015;-85
2020/12/18 09:33:11;;;;;;;;;;;10.70;99.90;;;;;;5035916;28;19933;-85
2020/12/18 09:35:40;;;;;;;;;;;10.70;99.90;;;;;;5035667;28;19940;-85
2020/12/18 09:38:12;;;;;;;;;;;10.70;99.90;;;;;;5035654;28;20433;-84
2020/12/18 09:40:42;;;;;;;;;;;10.70;99.90;;;;;;5035864;28;19925;-84
2020/12/18 09:43:08;;;;;;;;;;;10.70;99.90;;;;;;5035550;28;19932;-84
2020/12/18 09:45:36;;;;;;;;;;;10.70;99.90;;;;;;5035298;28;20309;-84
2020/12/18 09:48:03;;;;;;;;;;;10.70;99.90;;;;;;5035735;28;19951;-84
2020/12/18 09:50:31;;;;;;;;;;;10.70;99.90;;;;;;5035484;28;19933;-84
2020/12/18 09:52:58;;;;;;;;;;;10.70;99.90;;;;;;5035418;28;20353;-85
2020/12/18 09:55:27;;;;;;;;;;;10.70;99.90;;;;;;5035729;28;19940;-84
2020/12/18 09:57:56;;;;;;;;;;;10.70;99.90;;;;;;5035284;28;19925;-84
2020/12/18 10:00:24;;;;;;;;;;;10.80;99.90;;;;;;5035376;28;19983;-85
2020/12/18 10:02:51;;;;;;;;;;;10.80;99.90;;;;;;5035399;28;20353;-93
2020/12/18 10:05:18;;;;;;;;;;;10.80;99.90;;;;;;5035799;28;19925;-93
2020/12/18 10:07:45;;;;;;;;;;;10.80;99.90;;;;;;5035620;28;19925;-93
2020/12/18 10:10:12;;;;;;;;;;;10.80;99.90;;;;;;5036011;28;19925;-93
2020/12/18 10:12:53;;;;;;;;;;;10.80;99.90;;;;;;5035812;28;19925;-93
2020/12/18 10:15:20;;;;;;;;;;;10.80;99.90;;;;;;5035498;28;20273;-93
2020/12/18 10:17:48;;;;;;;;;;;10.80;99.90;;;;;;5034996;28;20419;-93
2020/12/18 10:20:16;;;;;;;;;;;10.80;99.90;;;;;;5034211;28;19932;-94
2020/12/18 10:22:44;;;;;;;;;;;10.80;99.90;;;;;;5034854;28;19947;-93
2020/12/18 10:25:12;;;;;;;;;;;10.80;99.90;;;;;;5035885;28;20313;-93
2020/12/18 10:27:38;;;;;;;;;;;10.80;99.90;;;;;;5035363;28;20277;-93
2020/12/18 10:30:07;;;;;;;;;;;10.90;99.90;;;;;;5035337;28;19925;-94
2020/12/18 10:32:34;;;;;;;;;;;10.90;99.90;;;;;;5035685;28;20284;-93
2020/12/18 10:35:03;;;;;;;;;;;10.90;99.90;;;;;;5035661;28;19925;-93
2020/12/18 10:37:30;;;;;;;;;;;11.00;99.90;;;;;;5035430;28;19924;-93
2020/12/18 10:39:57;;;;;;;;;;;11.00;99.90;;;;;;5035603;28;19925;-93
2020/12/18 10:42:25;;;;;;;;;;;11.00;99.90;;;;;;5035335;28;19972;-93
2020/12/18 10:44:52;;;;;;;;;;;11.00;99.90;;;;;;5035644;28;19925;-93
2020/12/18 10:47:21;;;;;;;;;;;11.00;99.90;;;;;;5035093;28;19925;-93
2020/12/18 10:49:47;;;;;;;;;;;11.00;99.90;;;;;;5035583;28;19956;-93
2020/12/18 10:52:13;;;;;;;;;;;11.00;99.90;;;;;;5035045;28;19925;-92
2020/12/18 10:54:40;;;;;;;;;;;11.10;99.90;;;;;;5035501;28;19987;-93
2020/12/18 10:57:06;;;;;;;;;;;11.00;99.90;;;;;;5035412;28;19925;-93
2020/12/18 10:59:33;;;;;;;;;;;11.10;99.90;;;;;;5034573;28;19952;-93
2020/12/18 11:02:00;;;;;;;;;;;11.10;99.90;;;;;;5035313;28;19925;-93
2020/12/18 11:04:27;;;;;;;;;;;11.10;99.90;;;;;;5035257;28;19936;-93
2020/12/18 11:06:54;;;;;;;;;;;11.10;99.90;;;;;;5035085;28;19925;-93
2020/12/18 11:09:20;;;;;;;;;;;11.10;99.90;;;;;;5035335;28;19936;-93
2020/12/18 11:11:49;;;;;;;;;;;11.10;99.90;;;;;;5035162;28;19925;-93
2020/12/18 11:14:15;;;;;;;;;;;11.10;99.90;;;;;;5035281;28;19940;-93
2020/12/18 11:16:42;;;;;;;;;;;11.10;99.90;;;;;;5015217;28;20290;-93
2020/12/18 11:19:08;;;;;;;;;;;11.10;99.90;;;;;;5015375;28;19937;-93
2020/12/18 11:21:36;;;;;;;;;;;11.10;99.90;;;;;;5015263;28;19937;-93
2020/12/18 11:24:02;;;;;;;;;;;11.10;99.90;;;;;;5015466;28;19926;-93
2020/12/18 11:26:28;;;;;;;;;;;11.10;99.90;;;;;;5014427;28;19925;-93
2020/12/18 11:28:55;;;;;;;;;;;11.10;99.90;;;;;;5017789;28;19926;-93
2020/12/18 11:31:21;;;;;;;;;;;11.10;99.90;;;;;;5018912;28;20250;-93
2020/12/18 11:33:47;;;;;;;;;;;11.10;99.90;;;;;;5018801;28;19926;-93
2020/12/18 11:36:14;;;;;;;;;;;11.10;99.90;;;;;;5018615;28;19925;-93
2020/12/18 11:38:41;;;;;;;;;;;11.10;99.90;;;;;;5018898;28;19936;-93
2020/12/18 11:41:07;;;;;;;;;;;11.10;99.90;;;;;;5018482;28;19925;-84
2020/12/18 11:43:33;;;;;;;;;;;11.10;99.90;;;;;;5018086;28;19929;-84
2020/12/18 11:46:00;;;;;;;;;;;11.10;99.90;;;;;;5018169;28;19929;-84
2020/12/18 11:48:26;;;;;;;;;;;11.20;99.90;;;;;;5018054;28;19925;-84
2020/12/18 11:50:52;;;;;;;;;;;11.20;99.90;;;;;;5018012;28;20277;-85
2020/12/18 11:53:20;;;;;;;;;;;11.20;99.90;;;;;;5017710;28;19925;-84
2020/12/18 11:55:49;;;;;;;;;;;11.20;99.90;;;;;;5017865;28;19925;-85
2020/12/18 11:58:15;;;;;;;;;;;11.20;99.90;;;;;;5017840;28;20269;-84
2020/12/18 12:00:43;;;;;;;;;;;11.30;99.90;;;;;;5016138;28;19926;-84
2020/12/18 12:03:10;;;;;;;;;;;11.30;99.90;;;;;;5017696;28;19976;-85
2020/12/18 12:05:39;;;;;;;;;;;11.30;99.90;;;;;;5017783;28;19925;-85
2020/12/18 12:08:07;;;;;;;;;;;11.40;99.90;;;;;;5017309;28;19925;-85
2020/12/18 12:10:35;;;;;;;;;;;11.40;99.90;;;;;;5017475;28;19952;-85
2020/12/18 12:13:04;;;;;;;;;;;11.30;99.90;;;;;;5018025;28;19925;-87
2020/12/18 12:15:31;;;;;;;;;;;11.40;99.90;;;;;;5027878;28;20361;-82
2020/12/18 12:17:59;;;;;;;;;;;11.30;99.90;;;;;;5042301;28;20479;-90
2020/12/18 12:20:26;;;;;;;;;;;11.30;99.90;;;;;;5046063;28;19926;-90
2020/12/18 12:22:54;;;;;;;;;;;11.30;99.90;;;;;;5041308;28;19937;-96
2020/12/18 12:25:21;;;;;;;;;;;11.40;99.90;;;;;;5043807;28;19998;-95
2020/12/18 12:27:47;;;;;;;;;;;11.40;99.90;;;;;;5039230;28;19999;-90
2020/12/18 12:30:14;;;;;;;;;;;11.40;99.90;;;;;;5037606;28;19932;-96
2020/12/18 12:32:41;;;;;;;;;;;11.40;99.90;;;;;;5037814;28;19925;-94
2020/12/18 12:35:07;;;;;;;;;;;11.40;99.90;;;;;;5039275;28;19935;-93
2020/12/18 12:37:34;;;;;;;;;;;11.30;99.90;;;;;;5038036;28;19929;-95
2020/12/18 12:40:01;;;;;;;;;;;11.30;99.90;;;;;;5036291;28;19991;-93
2020/12/18 12:42:28;;;;;;;;;;;11.40;99.90;;;;;;5037344;28;20342;-91
2020/12/18 12:44:54;;;;;;;;;;;11.30;99.90;;;;;;5037188;28;19925;-91
2020/12/18 12:47:24;;;;;;;;;;;11.40;99.90;;;;;;5037881;28;19975;-95
2020/12/18 12:49:52;;;;;;;;;;;11.40;99.90;;;;;;5037643;28;19944;-96
2020/12/18 12:52:19;;;;;;;;;;;11.40;99.90;;;;;;5037313;28;19940;-95
2020/12/18 12:54:47;;;;;;;;;;;11.40;99.90;;;;;;5037742;28;19936;-95
2020/12/18 12:57:15;;;;;;;;;;;11.40;99.90;;;;;;5037085;28;19936;-95
2020/12/18 12:59:41;;;;;;;;;;;11.40;99.90;;;;;;5037031;28;19936;-96
2020/12/18 13:02:07;;;;;;;;;;;11.40;99.90;;;;;;5037227;28;19932;-95
2020/12/18 13:04:36;;;;;;;;;;;11.40;99.90;;;;;;5036674;28;19929;-96
2020/12/18 13:07:04;;;;;;;;;;;11.40;99.90;;;;;;5037410;28;20377;-95
2020/12/18 13:09:31;;;;;;;;;;;11.40;99.90;;;;;;5037109;28;19936;-95
2020/12/18 13:11:58;;;;;;;;;;;11.40;99.90;;;;;;5036492;28;19995;-95
2020/12/18 13:14:24;;;;;;;;;;;11.40;99.90;;;;;;5036619;28;19991;-95
2020/12/18 13:16:52;;;;;;;;;;;11.40;99.90;;;;;;5037250;28;19925;-95
2020/12/18 13:19:19;;;;;;;;;;;11.40;99.90;;;;;;5036644;28;19979;-95
2020/12/18 13:21:47;;;;;;;;;;;11.40;99.90;;;;;;5036870;28;19929;-96
2020/12/18 13:24:14;;;;;;;;;;;11.40;99.90;;;;;;5036815;28;20357;-95
2020/12/18 13:26:42;;;;;;;;;;;11.50;99.90;;;;;;5036722;28;19936;-95
2020/12/18 13:29:10;;;;;;;;;;;11.40;99.90;;;;;;5037098;28;19929;-95
2020/12/18 13:31:37;;;;;;;;;;;11.50;99.90;;;;;;5036572;28;19925;-96
2020/12/18 13:34:03;;;;;;;;;;;11.40;99.90;;;;;;5035911;28;19936;-95
2020/12/18 13:36:29;;;;;;;;;;;11.40;99.90;;;;;;5035528;28;19925;-94
2020/12/18 13:38:57;;;;;;;;;;;11.50;99.90;;;;;;5035287;28;19945;-95
2020/12/18 13:41:23;;;;;;;;;;;11.50;99.90;;;;;;5036594;28;19933;-96
2020/12/18 13:43:49;;;;;;;;;;;11.50;99.90;;;;;;5036382;28;19925;-94
2020/12/18 13:46:16;;;;;;;;;;;11.50;99.90;;;;;;5036274;28;20376;-95
2020/12/18 13:48:45;;;;;;;;;;;11.50;99.90;;;;;;5036380;28;19925;-95
2020/12/18 13:51:15;;;;;;;;;;;11.50;99.90;;;;;;5036663;28;19988;-95
2020/12/18 13:53:42;;;;;;;;;;;11.50;99.90;;;;;;5036286;28;20322;-95
2020/12/18 13:56:12;;;;;;;;;;;11.50;99.90;;;;;;5036315;28;19931;-94
2020/12/18 13:58:40;;;;;;;;;;;11.50;99.90;;;;;;5036279;28;19929;-96
2020/12/18 14:01:08;;;;;;;;;;;11.50;99.90;;;;;;5036159;28;19925;-94
2020/12/18 14:03:34;;;;;;;;;;;11.50;99.90;;;;;;5036299;28;19991;-94
2020/12/18 14:06:02;;;;;;;;;;;11.50;99.90;;;;;;5035848;28;20027;-94
2020/12/18 14:08:29;;;;;;;;;;;11.60;99.90;;;;;;5035900;28;19928;-94
2020/12/18 14:10:57;;;;;;;;;;;11.50;99.90;;;;;;5036088;28;20313;-94
2020/12/18 14:13:26;;;;;;;;;;;11.50;99.90;;;;;;5036012;28;19979;-94
2020/12/18 14:15:53;;;;;;;;;;;11.60;99.90;;;;;;5035765;28;19925;-94
2020/12/18 14:18:20;;;;;;;;;;;11.60;99.90;;;;;;5035684;28;19925;-94
2020/12/18 14:20:47;;;;;;;;;;;11.60;99.90;;;;;;5035705;28;20279;-95
2020/12/18 14:23:15;;;;;;;;;;;11.60;99.90;;;;;;5036092;28;19935;-95